sensor_id;sensor_type;location;lat;lon;timestamp;P1;durP1;ratioP1;P2;durP2;ratioP2
16270;SDS011;8243;49.048;8.396;2022-12-05T00:00:58;48.97;;;21.43;;
16270;SDS011;8243;49.048;8.396;2022-12-05T00:03:26;51.27;;;20.57;;
16270;SDS011;8243;49.048;8.396;2022-12-05T00:05:51;52.87;;;21.27;;
16270;SDS011;8243;49.048;8.396;2022-12-05T00:08:17;62.53;;;21.57;;
16270;SDS011;8243;49.048;8.396;2022-12-05T00:10:43;61.17;;;21.87;;
16270;SDS011;8243;49.048;8.396;2022-12-05T00:13:09;55.00;;;22.00;;
16270;SDS011;8243;49.048;8.396;2022-12-05T00:15:35;50.33;;;20.60;;
16270;SDS011;8243;49.048;8.396;2022-12-05T00:18:04;89.77;;;24.60;;
16270;SDS011;8243;49.048;8.396;2022-12-05T00:20:31;92.77;;;27.77;;
16270;SDS011;8243;49.048;8.396;2022-12-05T00:22:56;77.20;;;25.30;;
16270;SDS011;8243;49.048;8.396;2022-12-05T00:25:22;68.20;;;24.60;;
16270;SDS011;8243;49.048;8.396;2022-12-05T00:27:47;62.33;;;23.43;;
16270;SDS011;8243;49.048;8.396;2022-12-05T00:30:13;71.20;;;24.63;;
16270;SDS011;8243;49.048;8.396;2022-12-05T00:32:38;57.47;;;24.67;;
16270;SDS011;8243;49.048;8.396;2022-12-05T00:35:04;57.63;;;25.47;;
16270;SDS011;8243;49.048;8.396;2022-12-05T00:37:30;75.47;;;27.47;;
16270;SDS011;8243;49.048;8.396;2022-12-05T00:39:55;63.13;;;29.00;;
16270;SDS011;8243;49.048;8.396;2022-12-05T00:42:21;82.70;;;27.33;;
16270;SDS011;8243;49.048;8.396;2022-12-05T00:44:48;73.17;;;29.00;;
16270;SDS011;8243;49.048;8.396;2022-12-05T00:47:14;69.13;;;28.43;;
16270;SDS011;8243;49.048;8.396;2022-12-05T00:49:39;71.50;;;29.27;;
16270;SDS011;8243;49.048;8.396;2022-12-05T00:52:05;72.70;;;27.20;;
16270;SDS011;8243;49.048;8.396;2022-12-05T00:54:31;59.43;;;26.23;;
16270;SDS011;8243;49.048;8.396;2022-12-05T00:56:56;61.47;;;26.10;;
16270;SDS011;8243;49.048;8.396;2022-12-05T00:59:22;81.00;;;27.60;;
16270;SDS011;8243;49.048;8.396;2022-12-05T01:01:50;64.00;;;28.00;;
16270;SDS011;8243;49.048;8.396;2022-12-05T01:04:17;74.83;;;28.83;;
16270;SDS011;8243;49.048;8.396;2022-12-05T01:06:45;75.80;;;27.60;;
16270;SDS011;8243;49.048;8.396;2022-12-05T01:09:12;77.77;;;27.47;;
16270;SDS011;8243;49.048;8.396;2022-12-05T01:11:39;80.20;;;27.60;;
16270;SDS011;8243;49.048;8.396;2022-12-05T01:14:04;84.77;;;27.27;;
16270;SDS011;8243;49.048;8.396;2022-12-05T01:16:31;88.80;;;28.93;;
16270;SDS011;8243;49.048;8.396;2022-12-05T01:19:00;86.17;;;26.77;;
16270;SDS011;8243;49.048;8.396;2022-12-05T01:21:28;120.10;;;28.60;;
16270;SDS011;8243;49.048;8.396;2022-12-05T01:23:54;63.87;;;26.13;;
16270;SDS011;8243;49.048;8.396;2022-12-05T01:26:21;77.43;;;28.40;;
16270;SDS011;8243;49.048;8.396;2022-12-05T01:28:48;95.77;;;26.80;;
16270;SDS011;8243;49.048;8.396;2022-12-05T01:31:24;80.43;;;26.80;;
16270;SDS011;8243;49.048;8.396;2022-12-05T01:33:58;65.03;;;25.67;;
16270;SDS011;8243;49.048;8.396;2022-12-05T01:36:25;63.50;;;25.23;;
16270;SDS011;8243;49.048;8.396;2022-12-05T01:38:51;75.27;;;24.93;;
16270;SDS011;8243;49.048;8.396;2022-12-05T01:41:28;70.60;;;24.90;;
16270;SDS011;8243;49.048;8.396;2022-12-05T01:46:49;78.60;;;24.63;;
16270;SDS011;8243;49.048;8.396;2022-12-05T01:51:53;107.67;;;27.17;;
16270;SDS011;8243;49.048;8.396;2022-12-05T01:54:22;69.50;;;24.77;;
16270;SDS011;8243;49.048;8.396;2022-12-05T01:57:06;65.23;;;24.93;;
16270;SDS011;8243;49.048;8.396;2022-12-05T01:59:35;54.80;;;22.40;;
16270;SDS011;8243;49.048;8.396;2022-12-05T02:02:04;61.57;;;23.80;;
16270;SDS011;8243;49.048;8.396;2022-12-05T02:04:32;51.30;;;22.07;;
16270;SDS011;8243;49.048;8.396;2022-12-05T02:07:08;55.43;;;22.20;;
16270;SDS011;8243;49.048;8.396;2022-12-05T02:09:34;56.77;;;24.07;;
16270;SDS011;8243;49.048;8.396;2022-12-05T02:12:00;58.43;;;23.10;;
16270;SDS011;8243;49.048;8.396;2022-12-05T02:17:04;53.63;;;22.43;;
16270;SDS011;8243;49.048;8.396;2022-12-05T02:20:07;55.13;;;24.10;;
16270;SDS011;8243;49.048;8.396;2022-12-05T02:25:37;58.20;;;22.60;;
16270;SDS011;8243;49.048;8.396;2022-12-05T02:37:31;65.87;;;22.70;;
16270;SDS011;8243;49.048;8.396;2022-12-05T02:45:14;54.53;;;22.33;;
16270;SDS011;8243;49.048;8.396;2022-12-05T02:47:44;58.97;;;22.57;;
16270;SDS011;8243;49.048;8.396;2022-12-05T02:50:13;61.13;;;23.10;;
16270;SDS011;8243;49.048;8.396;2022-12-05T02:52:41;65.33;;;23.53;;
16270;SDS011;8243;49.048;8.396;2022-12-05T02:55:10;59.77;;;23.17;;
16270;SDS011;8243;49.048;8.396;2022-12-05T02:57:38;56.97;;;21.57;;
16270;SDS011;8243;49.048;8.396;2022-12-05T03:00:10;56.10;;;23.30;;
16270;SDS011;8243;49.048;8.396;2022-12-05T03:02:37;54.07;;;22.73;;
16270;SDS011;8243;49.048;8.396;2022-12-05T03:08:03;60.17;;;22.97;;
16270;SDS011;8243;49.048;8.396;2022-12-05T03:10:32;59.47;;;23.57;;
16270;SDS011;8243;49.048;8.396;2022-12-05T03:13:02;62.10;;;24.80;;
16270;SDS011;8243;49.048;8.396;2022-12-05T03:15:35;67.57;;;24.43;;
16270;SDS011;8243;49.048;8.396;2022-12-05T03:18:15;56.93;;;24.20;;
16270;SDS011;8243;49.048;8.396;2022-12-05T03:20:56;56.03;;;23.47;;
16270;SDS011;8243;49.048;8.396;2022-12-05T03:23:30;60.83;;;23.90;;
16270;SDS011;8243;49.048;8.396;2022-12-05T03:26:04;52.40;;;22.83;;
16270;SDS011;8243;49.048;8.396;2022-12-05T03:34:18;55.67;;;23.00;;
16270;SDS011;8243;49.048;8.396;2022-12-05T03:36:53;51.87;;;23.33;;
16270;SDS011;8243;49.048;8.396;2022-12-05T03:39:23;52.10;;;23.67;;
16270;SDS011;8243;49.048;8.396;2022-12-05T03:41:59;54.37;;;22.50;;
16270;SDS011;8243;49.048;8.396;2022-12-05T03:44:46;47.87;;;22.10;;
16270;SDS011;8243;49.048;8.396;2022-12-05T03:47:19;50.27;;;22.57;;
16270;SDS011;8243;49.048;8.396;2022-12-05T03:49:51;48.03;;;22.33;;
16270;SDS011;8243;49.048;8.396;2022-12-05T03:52:25;43.93;;;21.53;;
16270;SDS011;8243;49.048;8.396;2022-12-05T03:54:55;46.70;;;22.47;;
16270;SDS011;8243;49.048;8.396;2022-12-05T03:57:36;44.70;;;21.97;;
16270;SDS011;8243;49.048;8.396;2022-12-05T04:00:10;46.27;;;21.50;;
16270;SDS011;8243;49.048;8.396;2022-12-05T04:05:31;43.13;;;21.03;;
16270;SDS011;8243;49.048;8.396;2022-12-05T04:08:46;44.90;;;21.97;;
16270;SDS011;8243;49.048;8.396;2022-12-05T04:11:02;40.10;;;19.50;;
16270;SDS011;8243;49.048;8.396;2022-12-05T04:13:38;38.87;;;20.77;;
16270;SDS011;8243;49.048;8.396;2022-12-05T04:16:11;42.20;;;20.30;;
16270;SDS011;8243;49.048;8.396;2022-12-05T04:21:42;41.10;;;20.83;;
16270;SDS011;8243;49.048;8.396;2022-12-05T04:24:26;41.23;;;20.57;;
16270;SDS011;8243;49.048;8.396;2022-12-05T04:30:04;41.60;;;21.03;;
16270;SDS011;8243;49.048;8.396;2022-12-05T04:32:34;38.73;;;19.47;;
16270;SDS011;8243;49.048;8.396;2022-12-05T04:35:11;35.93;;;19.00;;
16270;SDS011;8243;49.048;8.396;2022-12-05T04:37:43;35.87;;;18.57;;
16270;SDS011;8243;49.048;8.396;2022-12-05T04:40:16;35.60;;;19.53;;
16270;SDS011;8243;49.048;8.396;2022-12-05T04:43:03;35.57;;;19.33;;
16270;SDS011;8243;49.048;8.396;2022-12-05T04:45:31;36.07;;;18.77;;
16270;SDS011;8243;49.048;8.396;2022-12-05T04:48:00;42.13;;;19.50;;
16270;SDS011;8243;49.048;8.396;2022-12-05T04:50:31;35.53;;;18.37;;
16270;SDS011;8243;49.048;8.396;2022-12-05T04:52:58;33.13;;;18.60;;
16270;SDS011;8243;49.048;8.396;2022-12-05T04:55:26;33.27;;;18.70;;
16270;SDS011;8243;49.048;8.396;2022-12-05T05:00:26;35.00;;;18.17;;
16270;SDS011;8243;49.048;8.396;2022-12-05T05:02:56;32.03;;;17.53;;
16270;SDS011;8243;49.048;8.396;2022-12-05T05:05:33;33.17;;;18.40;;
16270;SDS011;8243;49.048;8.396;2022-12-05T05:08:00;33.00;;;17.60;;
16270;SDS011;8243;49.048;8.396;2022-12-05T05:10:28;28.97;;;17.13;;
16270;SDS011;8243;49.048;8.396;2022-12-05T05:13:01;36.93;;;18.03;;
16270;SDS011;8243;49.048;8.396;2022-12-05T05:15:27;31.73;;;17.03;;
16270;SDS011;8243;49.048;8.396;2022-12-05T05:17:52;34.20;;;18.33;;
16270;SDS011;8243;49.048;8.396;2022-12-05T05:20:18;32.83;;;17.87;;
16270;SDS011;8243;49.048;8.396;2022-12-05T05:22:51;33.33;;;18.93;;
16270;SDS011;8243;49.048;8.396;2022-12-05T05:25:20;31.37;;;17.50;;
16270;SDS011;8243;49.048;8.396;2022-12-05T05:27:47;29.30;;;17.50;;
16270;SDS011;8243;49.048;8.396;2022-12-05T05:30:14;32.30;;;18.73;;
16270;SDS011;8243;49.048;8.396;2022-12-05T05:32:40;31.37;;;17.53;;
16270;SDS011;8243;49.048;8.396;2022-12-05T05:35:05;28.77;;;17.37;;
16270;SDS011;8243;49.048;8.396;2022-12-05T05:37:31;26.03;;;16.97;;
16270;SDS011;8243;49.048;8.396;2022-12-05T05:39:56;28.50;;;16.77;;
16270;SDS011;8243;49.048;8.396;2022-12-05T05:42:26;27.70;;;16.83;;
16270;SDS011;8243;49.048;8.396;2022-12-05T05:45:02;28.47;;;16.63;;
16270;SDS011;8243;49.048;8.396;2022-12-05T05:47:28;27.83;;;15.83;;
16270;SDS011;8243;49.048;8.396;2022-12-05T05:49:53;28.30;;;17.07;;
16270;SDS011;8243;49.048;8.396;2022-12-05T05:52:19;28.53;;;15.90;;
16270;SDS011;8243;49.048;8.396;2022-12-05T05:54:44;31.73;;;17.07;;
16270;SDS011;8243;49.048;8.396;2022-12-05T05:57:10;28.77;;;16.80;;
16270;SDS011;8243;49.048;8.396;2022-12-05T05:59:35;26.23;;;16.67;;
16270;SDS011;8243;49.048;8.396;2022-12-05T06:02:01;28.23;;;16.20;;
16270;SDS011;8243;49.048;8.396;2022-12-05T06:04:27;27.40;;;16.90;;
16270;SDS011;8243;49.048;8.396;2022-12-05T06:06:52;25.50;;;16.07;;
16270;SDS011;8243;49.048;8.396;2022-12-05T06:09:18;25.30;;;16.10;;
16270;SDS011;8243;49.048;8.396;2022-12-05T06:11:44;26.93;;;16.43;;
16270;SDS011;8243;49.048;8.396;2022-12-05T06:14:09;25.53;;;15.87;;
16270;SDS011;8243;49.048;8.396;2022-12-05T06:16:35;27.70;;;16.63;;
16270;SDS011;8243;49.048;8.396;2022-12-05T06:19:00;26.57;;;17.20;;
16270;SDS011;8243;49.048;8.396;2022-12-05T06:21:26;27.73;;;16.90;;
16270;SDS011;8243;49.048;8.396;2022-12-05T06:23:52;25.53;;;16.67;;
16270;SDS011;8243;49.048;8.396;2022-12-05T06:26:19;27.37;;;16.97;;
16270;SDS011;8243;49.048;8.396;2022-12-05T06:28:45;25.93;;;16.93;;
16270;SDS011;8243;49.048;8.396;2022-12-05T06:31:13;27.13;;;16.27;;
16270;SDS011;8243;49.048;8.396;2022-12-05T06:33:44;25.33;;;15.70;;
16270;SDS011;8243;49.048;8.396;2022-12-05T06:36:12;24.43;;;16.23;;
16270;SDS011;8243;49.048;8.396;2022-12-05T06:38:39;25.37;;;16.03;;
16270;SDS011;8243;49.048;8.396;2022-12-05T06:41:06;24.00;;;15.93;;
16270;SDS011;8243;49.048;8.396;2022-12-05T06:43:33;26.37;;;17.43;;
16270;SDS011;8243;49.048;8.396;2022-12-05T06:46:03;25.57;;;15.90;;
16270;SDS011;8243;49.048;8.396;2022-12-05T06:48:31;24.23;;;16.17;;
16270;SDS011;8243;49.048;8.396;2022-12-05T06:50:57;26.80;;;16.13;;
16270;SDS011;8243;49.048;8.396;2022-12-05T06:53:23;26.50;;;16.70;;
16270;SDS011;8243;49.048;8.396;2022-12-05T06:55:56;27.43;;;16.33;;
16270;SDS011;8243;49.048;8.396;2022-12-05T06:58:23;27.73;;;17.03;;
16270;SDS011;8243;49.048;8.396;2022-12-05T07:00:48;24.27;;;16.17;;
16270;SDS011;8243;49.048;8.396;2022-12-05T07:03:33;28.23;;;17.27;;
16270;SDS011;8243;49.048;8.396;2022-12-05T07:05:59;25.20;;;16.53;;
16270;SDS011;8243;49.048;8.396;2022-12-05T07:08:25;25.93;;;16.93;;
16270;SDS011;8243;49.048;8.396;2022-12-05T07:10:52;27.30;;;17.50;;
16270;SDS011;8243;49.048;8.396;2022-12-05T07:13:18;27.57;;;17.53;;
16270;SDS011;8243;49.048;8.396;2022-12-05T07:15:47;31.53;;;18.77;;
16270;SDS011;8243;49.048;8.396;2022-12-05T07:18:16;27.03;;;17.83;;
16270;SDS011;8243;49.048;8.396;2022-12-05T07:20:42;26.63;;;17.03;;
16270;SDS011;8243;49.048;8.396;2022-12-05T07:23:08;27.87;;;16.87;;
16270;SDS011;8243;49.048;8.396;2022-12-05T07:25:38;26.97;;;17.30;;
16270;SDS011;8243;49.048;8.396;2022-12-05T07:28:04;26.13;;;16.53;;
16270;SDS011;8243;49.048;8.396;2022-12-05T07:30:31;27.00;;;17.67;;
16270;SDS011;8243;49.048;8.396;2022-12-05T07:32:56;25.77;;;17.20;;
16270;SDS011;8243;49.048;8.396;2022-12-05T07:35:23;28.30;;;17.73;;
16270;SDS011;8243;49.048;8.396;2022-12-05T07:37:49;31.10;;;19.07;;
16270;SDS011;8243;49.048;8.396;2022-12-05T07:40:14;27.37;;;17.97;;
16270;SDS011;8243;49.048;8.396;2022-12-05T07:42:40;26.23;;;17.33;;
16270;SDS011;8243;49.048;8.396;2022-12-05T07:45:06;30.47;;;17.53;;
16270;SDS011;8243;49.048;8.396;2022-12-05T07:47:32;28.13;;;17.77;;
16270;SDS011;8243;49.048;8.396;2022-12-05T07:49:57;27.23;;;17.33;;
16270;SDS011;8243;49.048;8.396;2022-12-05T07:52:23;24.53;;;17.13;;
16270;SDS011;8243;49.048;8.396;2022-12-05T07:54:48;26.80;;;17.87;;
16270;SDS011;8243;49.048;8.396;2022-12-05T07:57:17;28.97;;;17.93;;
16270;SDS011;8243;49.048;8.396;2022-12-05T07:59:42;27.57;;;17.90;;
16270;SDS011;8243;49.048;8.396;2022-12-05T08:02:08;27.80;;;18.70;;
16270;SDS011;8243;49.048;8.396;2022-12-05T08:04:33;27.83;;;17.43;;
16270;SDS011;8243;49.048;8.396;2022-12-05T08:06:59;24.37;;;17.20;;
16270;SDS011;8243;49.048;8.396;2022-12-05T08:09:25;25.73;;;17.20;;
16270;SDS011;8243;49.048;8.396;2022-12-05T08:11:51;23.13;;;17.10;;
16270;SDS011;8243;49.048;8.396;2022-12-05T08:14:17;28.30;;;17.70;;
16270;SDS011;8243;49.048;8.396;2022-12-05T08:16:42;23.57;;;16.60;;
16270;SDS011;8243;49.048;8.396;2022-12-05T08:19:12;25.80;;;16.33;;
16270;SDS011;8243;49.048;8.396;2022-12-05T08:21:40;26.00;;;17.13;;
16270;SDS011;8243;49.048;8.396;2022-12-05T08:24:06;25.40;;;17.17;;
16270;SDS011;8243;49.048;8.396;2022-12-05T08:26:33;24.90;;;15.80;;
16270;SDS011;8243;49.048;8.396;2022-12-05T08:29:01;27.97;;;17.87;;
16270;SDS011;8243;49.048;8.396;2022-12-05T08:31:29;25.27;;;17.13;;
16270;SDS011;8243;49.048;8.396;2022-12-05T08:33:57;24.27;;;16.40;;
16270;SDS011;8243;49.048;8.396;2022-12-05T08:36:24;24.20;;;17.20;;
16270;SDS011;8243;49.048;8.396;2022-12-05T08:38:58;26.13;;;16.30;;
16270;SDS011;8243;49.048;8.396;2022-12-05T08:41:25;28.63;;;18.43;;
16270;SDS011;8243;49.048;8.396;2022-12-05T08:43:55;28.27;;;18.93;;
16270;SDS011;8243;49.048;8.396;2022-12-05T08:46:22;23.37;;;16.73;;
16270;SDS011;8243;49.048;8.396;2022-12-05T08:48:48;26.83;;;17.13;;
16270;SDS011;8243;49.048;8.396;2022-12-05T08:51:16;25.87;;;17.77;;
16270;SDS011;8243;49.048;8.396;2022-12-05T08:53:42;23.50;;;16.47;;
16270;SDS011;8243;49.048;8.396;2022-12-05T08:56:08;22.60;;;15.80;;
16270;SDS011;8243;49.048;8.396;2022-12-05T08:58:34;26.40;;;17.33;;
16270;SDS011;8243;49.048;8.396;2022-12-05T09:01:10;23.97;;;16.40;;
16270;SDS011;8243;49.048;8.396;2022-12-05T09:03:38;23.40;;;16.00;;
16270;SDS011;8243;49.048;8.396;2022-12-05T09:06:05;22.30;;;16.03;;
16270;SDS011;8243;49.048;8.396;2022-12-05T09:08:44;24.57;;;16.63;;
16270;SDS011;8243;49.048;8.396;2022-12-05T09:11:14;24.67;;;16.67;;
16270;SDS011;8243;49.048;8.396;2022-12-05T09:13:41;22.90;;;15.93;;
16270;SDS011;8243;49.048;8.396;2022-12-05T09:16:11;23.57;;;16.20;;
16270;SDS011;8243;49.048;8.396;2022-12-05T09:18:59;23.40;;;15.93;;
16270;SDS011;8243;49.048;8.396;2022-12-05T09:21:26;23.83;;;16.47;;
16270;SDS011;8243;49.048;8.396;2022-12-05T09:23:54;22.73;;;16.90;;
16270;SDS011;8243;49.048;8.396;2022-12-05T09:26:24;22.77;;;16.60;;
16270;SDS011;8243;49.048;8.396;2022-12-05T09:28:50;21.30;;;15.97;;
16270;SDS011;8243;49.048;8.396;2022-12-05T09:31:20;23.90;;;16.67;;
16270;SDS011;8243;49.048;8.396;2022-12-05T09:33:48;23.17;;;16.03;;
16270;SDS011;8243;49.048;8.396;2022-12-05T09:36:17;23.93;;;16.07;;
16270;SDS011;8243;49.048;8.396;2022-12-05T09:38:43;25.80;;;16.40;;
16270;SDS011;8243;49.048;8.396;2022-12-05T09:44:09;19.97;;;15.20;;
16270;SDS011;8243;49.048;8.396;2022-12-05T09:50:02;26.47;;;16.97;;
16270;SDS011;8243;49.048;8.396;2022-12-05T09:55:00;22.83;;;15.97;;
16270;SDS011;8243;49.048;8.396;2022-12-05T09:57:51;24.73;;;16.77;;
16270;SDS011;8243;49.048;8.396;2022-12-05T10:00:27;23.47;;;16.17;;
16270;SDS011;8243;49.048;8.396;2022-12-05T10:02:59;23.00;;;16.67;;
16270;SDS011;8243;49.048;8.396;2022-12-05T10:05:46;27.77;;;16.23;;
16270;SDS011;8243;49.048;8.396;2022-12-05T10:08:31;26.93;;;16.73;;
16270;SDS011;8243;49.048;8.396;2022-12-05T10:11:32;22.63;;;15.57;;
16270;SDS011;8243;49.048;8.396;2022-12-05T10:14:14;23.23;;;16.00;;
16270;SDS011;8243;49.048;8.396;2022-12-05T10:16:53;24.83;;;17.07;;
16270;SDS011;8243;49.048;8.396;2022-12-05T10:19:27;23.70;;;15.53;;
16270;SDS011;8243;49.048;8.396;2022-12-05T10:22:24;22.33;;;15.47;;
16270;SDS011;8243;49.048;8.396;2022-12-05T10:24:53;25.47;;;16.33;;
16270;SDS011;8243;49.048;8.396;2022-12-05T10:27:26;24.07;;;16.77;;
16270;SDS011;8243;49.048;8.396;2022-12-05T10:30:03;24.43;;;15.73;;
16270;SDS011;8243;49.048;8.396;2022-12-05T10:35:24;20.63;;;15.17;;
16270;SDS011;8243;49.048;8.396;2022-12-05T10:37:58;22.53;;;15.57;;
16270;SDS011;8243;49.048;8.396;2022-12-05T10:40:39;22.37;;;15.40;;
16270;SDS011;8243;49.048;8.396;2022-12-05T10:43:07;22.13;;;15.03;;
16270;SDS011;8243;49.048;8.396;2022-12-05T10:45:38;24.27;;;16.37;;
16270;SDS011;8243;49.048;8.396;2022-12-05T10:48:08;20.70;;;15.00;;
16270;SDS011;8243;49.048;8.396;2022-12-05T10:50:36;21.73;;;15.77;;
16270;SDS011;8243;49.048;8.396;2022-12-05T10:53:04;23.73;;;15.90;;
16270;SDS011;8243;49.048;8.396;2022-12-05T10:55:33;22.13;;;16.10;;
16270;SDS011;8243;49.048;8.396;2022-12-05T10:58:24;23.23;;;15.83;;
16270;SDS011;8243;49.048;8.396;2022-12-05T11:01:09;19.07;;;15.00;;
16270;SDS011;8243;49.048;8.396;2022-12-05T11:03:40;20.83;;;14.50;;
16270;SDS011;8243;49.048;8.396;2022-12-05T11:08:41;18.20;;;13.90;;
16270;SDS011;8243;49.048;8.396;2022-12-05T11:11:09;19.90;;;15.43;;
16270;SDS011;8243;49.048;8.396;2022-12-05T11:13:53;18.20;;;14.30;;
16270;SDS011;8243;49.048;8.396;2022-12-05T11:16:24;18.23;;;13.83;;
16270;SDS011;8243;49.048;8.396;2022-12-05T11:18:52;20.53;;;14.60;;
16270;SDS011;8243;49.048;8.396;2022-12-05T11:21:18;18.83;;;14.67;;
16270;SDS011;8243;49.048;8.396;2022-12-05T11:23:45;19.07;;;14.93;;
16270;SDS011;8243;49.048;8.396;2022-12-05T11:29:01;17.77;;;13.77;;
16270;SDS011;8243;49.048;8.396;2022-12-05T11:31:28;18.77;;;13.83;;
16270;SDS011;8243;49.048;8.396;2022-12-05T11:36:27;17.40;;;13.33;;
16270;SDS011;8243;49.048;8.396;2022-12-05T11:39:08;21.87;;;14.73;;
16270;SDS011;8243;49.048;8.396;2022-12-05T11:55:23;19.57;;;13.97;;
16270;SDS011;8243;49.048;8.396;2022-12-05T11:58:15;18.20;;;12.73;;
16270;SDS011;8243;49.048;8.396;2022-12-05T12:00:58;16.10;;;12.77;;
16270;SDS011;8243;49.048;8.396;2022-12-05T12:06:17;12.50;;;10.77;;
16270;SDS011;8243;49.048;8.396;2022-12-05T12:09:20;14.50;;;10.40;;
16270;SDS011;8243;49.048;8.396;2022-12-05T12:17:50;12.70;;;9.60;;
16270;SDS011;8243;49.048;8.396;2022-12-05T12:26:14;11.33;;;9.20;;
16270;SDS011;8243;49.048;8.396;2022-12-05T12:31:47;13.00;;;8.53;;
16270;SDS011;8243;49.048;8.396;2022-12-05T12:34:47;10.47;;;8.20;;
16270;SDS011;8243;49.048;8.396;2022-12-05T12:40:20;12.33;;;10.20;;
16270;SDS011;8243;49.048;8.396;2022-12-05T12:51:12;9.17;;;7.40;;
16270;SDS011;8243;49.048;8.396;2022-12-05T12:57:02;10.60;;;8.10;;
16270;SDS011;8243;49.048;8.396;2022-12-05T13:05:37;9.23;;;7.90;;
16270;SDS011;8243;49.048;8.396;2022-12-05T13:08:49;8.80;;;7.33;;
16270;SDS011;8243;49.048;8.396;2022-12-05T13:11:14;11.37;;;8.33;;
16270;SDS011;8243;49.048;8.396;2022-12-05T13:13:49;9.47;;;7.33;;
16270;SDS011;8243;49.048;8.396;2022-12-05T13:16:22;9.53;;;7.93;;
16270;SDS011;8243;49.048;8.396;2022-12-05T13:19:04;11.77;;;8.03;;
16270;SDS011;8243;49.048;8.396;2022-12-05T13:21:30;11.00;;;8.10;;
16270;SDS011;8243;49.048;8.396;2022-12-05T13:23:57;9.33;;;7.53;;
16270;SDS011;8243;49.048;8.396;2022-12-05T13:26:30;9.50;;;7.47;;
16270;SDS011;8243;49.048;8.396;2022-12-05T13:29:00;8.73;;;7.27;;
16270;SDS011;8243;49.048;8.396;2022-12-05T13:31:40;8.83;;;7.17;;
16270;SDS011;8243;49.048;8.396;2022-12-05T13:43:51;8.17;;;7.00;;
16270;SDS011;8243;49.048;8.396;2022-12-05T13:46:45;8.53;;;6.70;;
16270;SDS011;8243;49.048;8.396;2022-12-05T13:52:48;9.13;;;7.10;;
16270;SDS011;8243;49.048;8.396;2022-12-05T13:55:29;8.07;;;6.43;;
16270;SDS011;8243;49.048;8.396;2022-12-05T13:57:58;5.80;;;4.83;;
16270;SDS011;8243;49.048;8.396;2022-12-05T14:06:08;5.00;;;4.50;;
16270;SDS011;8243;49.048;8.396;2022-12-05T14:08:59;5.67;;;3.77;;
16270;SDS011;8243;49.048;8.396;2022-12-05T14:12:28;4.10;;;3.70;;
16270;SDS011;8243;49.048;8.396;2022-12-05T14:17:22;3.03;;;2.73;;
16270;SDS011;8243;49.048;8.396;2022-12-05T14:25:07;3.53;;;2.57;;
16270;SDS011;8243;49.048;8.396;2022-12-05T14:27:40;3.53;;;2.40;;
16270;SDS011;8243;49.048;8.396;2022-12-05T14:30:18;2.37;;;2.17;;
16270;SDS011;8243;49.048;8.396;2022-12-05T14:32:53;2.37;;;2.10;;
16270;SDS011;8243;49.048;8.396;2022-12-05T14:38:27;2.30;;;2.10;;
16270;SDS011;8243;49.048;8.396;2022-12-05T14:40:55;2.07;;;1.87;;
16270;SDS011;8243;49.048;8.396;2022-12-05T14:43:35;2.40;;;2.20;;
16270;SDS011;8243;49.048;8.396;2022-12-05T14:46:04;2.30;;;2.07;;
16270;SDS011;8243;49.048;8.396;2022-12-05T14:51:00;2.10;;;1.90;;
16270;SDS011;8243;49.048;8.396;2022-12-05T14:53:30;2.73;;;2.03;;
16270;SDS011;8243;49.048;8.396;2022-12-05T14:58:58;3.10;;;2.80;;
16270;SDS011;8243;49.048;8.396;2022-12-05T15:01:39;3.73;;;3.10;;
16270;SDS011;8243;49.048;8.396;2022-12-05T15:04:30;3.33;;;3.00;;
16270;SDS011;8243;49.048;8.396;2022-12-05T15:07:07;2.43;;;2.23;;
16270;SDS011;8243;49.048;8.396;2022-12-05T15:12:28;2.40;;;2.20;;
16270;SDS011;8243;49.048;8.396;2022-12-05T15:20:40;2.50;;;2.30;;
16270;SDS011;8243;49.048;8.396;2022-12-05T15:26:03;2.30;;;2.10;;
16270;SDS011;8243;49.048;8.396;2022-12-05T15:28:36;2.50;;;2.30;;
16270;SDS011;8243;49.048;8.396;2022-12-05T15:31:02;2.50;;;2.30;;
16270;SDS011;8243;49.048;8.396;2022-12-05T15:33:28;2.60;;;2.40;;
16270;SDS011;8243;49.048;8.396;2022-12-05T15:35:54;2.20;;;2.00;;
16270;SDS011;8243;49.048;8.396;2022-12-05T15:38:23;2.97;;;2.77;;
16270;SDS011;8243;49.048;8.396;2022-12-05T15:40:53;2.97;;;2.73;;
16270;SDS011;8243;49.048;8.396;2022-12-05T15:43:26;3.23;;;3.00;;
16270;SDS011;8243;49.048;8.396;2022-12-05T15:46:08;3.50;;;3.20;;
16270;SDS011;8243;49.048;8.396;2022-12-05T15:48:57;4.60;;;3.33;;
16270;SDS011;8243;49.048;8.396;2022-12-05T15:51:34;2.73;;;2.53;;
16270;SDS011;8243;49.048;8.396;2022-12-05T15:54:07;4.53;;;3.40;;
16270;SDS011;8243;49.048;8.396;2022-12-05T15:56:40;4.47;;;3.80;;
16270;SDS011;8243;49.048;8.396;2022-12-05T16:01:45;4.83;;;4.40;;
16270;SDS011;8243;49.048;8.396;2022-12-05T16:06:48;5.40;;;4.90;;
16270;SDS011;8243;49.048;8.396;2022-12-05T16:09:20;4.20;;;3.80;;
16270;SDS011;8243;49.048;8.396;2022-12-05T16:11:56;3.33;;;3.10;;
16270;SDS011;8243;49.048;8.396;2022-12-05T16:14:24;3.20;;;2.90;;
16270;SDS011;8243;49.048;8.396;2022-12-05T16:16:56;2.50;;;2.30;;
16270;SDS011;8243;49.048;8.396;2022-12-05T16:19:24;3.00;;;2.70;;
16270;SDS011;8243;49.048;8.396;2022-12-05T16:24:27;5.57;;;3.40;;
16270;SDS011;8243;49.048;8.396;2022-12-05T16:29:29;3.33;;;2.90;;
16270;SDS011;8243;49.048;8.396;2022-12-05T16:31:57;3.87;;;2.83;;
16270;SDS011;8243;49.048;8.396;2022-12-05T16:34:30;2.97;;;2.70;;
16270;SDS011;8243;49.048;8.396;2022-12-05T16:36:57;3.10;;;2.80;;
16270;SDS011;8243;49.048;8.396;2022-12-05T16:39:23;3.40;;;2.83;;
16270;SDS011;8243;49.048;8.396;2022-12-05T16:41:52;3.07;;;2.83;;
16270;SDS011;8243;49.048;8.396;2022-12-05T16:50:27;3.50;;;3.20;;
16270;SDS011;8243;49.048;8.396;2022-12-05T16:55:39;3.60;;;2.83;;
16270;SDS011;8243;49.048;8.396;2022-12-05T16:58:12;3.20;;;2.90;;
16270;SDS011;8243;49.048;8.396;2022-12-05T17:00:42;3.53;;;3.10;;
16270;SDS011;8243;49.048;8.396;2022-12-05T17:03:10;3.50;;;3.20;;
16270;SDS011;8243;49.048;8.396;2022-12-05T17:05:38;4.13;;;3.60;;
16270;SDS011;8243;49.048;8.396;2022-12-05T17:08:04;4.10;;;3.50;;
16270;SDS011;8243;49.048;8.396;2022-12-05T17:10:30;9.13;;;8.33;;
16270;SDS011;8243;49.048;8.396;2022-12-05T17:12:56;5.73;;;4.50;;
16270;SDS011;8243;49.048;8.396;2022-12-05T17:15:24;4.90;;;3.30;;
16270;SDS011;8243;49.048;8.396;2022-12-05T17:17:50;4.47;;;3.53;;
16270;SDS011;8243;49.048;8.396;2022-12-05T17:20:15;3.30;;;2.97;;
16270;SDS011;8243;49.048;8.396;2022-12-05T17:22:41;4.37;;;3.67;;
16270;SDS011;8243;49.048;8.396;2022-12-05T17:25:16;3.23;;;2.47;;
16270;SDS011;8243;49.048;8.396;2022-12-05T17:28:02;2.63;;;2.40;;
16270;SDS011;8243;49.048;8.396;2022-12-05T17:30:28;2.90;;;2.60;;
16270;SDS011;8243;49.048;8.396;2022-12-05T17:32:54;2.60;;;2.30;;
16270;SDS011;8243;49.048;8.396;2022-12-05T17:35:20;3.10;;;2.80;;
16270;SDS011;8243;49.048;8.396;2022-12-05T17:37:46;5.03;;;2.87;;
16270;SDS011;8243;49.048;8.396;2022-12-05T17:40:12;3.93;;;3.57;;
16270;SDS011;8243;49.048;8.396;2022-12-05T17:42:38;4.10;;;3.40;;
16270;SDS011;8243;49.048;8.396;2022-12-05T17:45:11;6.17;;;4.90;;
16270;SDS011;8243;49.048;8.396;2022-12-05T17:47:41;4.67;;;4.27;;
16270;SDS011;8243;49.048;8.396;2022-12-05T17:50:11;5.97;;;4.60;;
16270;SDS011;8243;49.048;8.396;2022-12-05T17:52:48;4.50;;;4.10;;
16270;SDS011;8243;49.048;8.396;2022-12-05T17:55:16;5.07;;;3.80;;
16270;SDS011;8243;49.048;8.396;2022-12-05T17:57:47;4.13;;;3.73;;
16270;SDS011;8243;49.048;8.396;2022-12-05T18:00:13;3.93;;;3.63;;
16270;SDS011;8243;49.048;8.396;2022-12-05T18:02:41;4.07;;;3.67;;
16270;SDS011;8243;49.048;8.396;2022-12-05T18:05:09;5.40;;;3.10;;